Time;durP1;ratioP1;P1;durP2;ratioP2;P2;SDS_P1;SDS_P2;PMS_P1;PMS_P2;Temp;Humidity;BMP_temperature;BMP_pressure;BME280_temperature;BME280_humidity;BME280_pressure;Samples;Min_cycle;Max_cycle;Signal;HPM_P1;HPM_P2
2021/07/01 00:00:49;;;;;;;20.30;12.35;;;;;;;20.80;100.00;100573.34;1747151;80;21026;-88
2021/07/01 00:03:16;;;;;;;16.80;12.55;;;;;;;20.79;100.00;100569.56;1744185;80;21093;-90
2021/07/01 00:05:44;;;;;;;13.75;12.20;;;;;;;20.79;100.00;100570.89;1722247;80;21215;-90
2021/07/01 00:08:11;;;;;;;17.65;12.30;;;;;;;20.78;100.00;100567.92;1729506;80;21118;-89
2021/07/01 00:10:38;;;;;;;17.32;12.88;;;;;;;20.78;100.00;100569.24;1757043;80;21208;-89
2021/07/01 00:13:05;;;;;;;14.85;13.00;;;;;;;20.76;100.00;100576.05;1766446;79;20994;-88
2021/07/01 00:15:35;;;;;;;13.68;12.33;;;;;;;20.73;100.00;100572.44;1761045;80;21007;-89
2021/07/01 00:18:05;;;;;;;13.53;12.07;;;;;;;20.70;100.00;100564.86;1760842;80;21046;-90
2021/07/01 00:20:32;;;;;;;15.32;12.15;;;;;;;20.70;100.00;100570.63;1759310;79;21583;-89
2021/07/01 00:22:59;;;;;;;14.13;11.73;;;;;;;20.69;100.00;100571.63;1732556;80;21094;-87
2021/07/01 00:25:26;;;;;;;15.13;13.25;;;;;;;20.69;100.00;100568.98;1732373;81;21242;-90
2021/07/01 00:27:53;;;;;;;13.48;12.15;;;;;;;20.70;100.00;100563.53;1724466;81;21072;-89
2021/07/01 00:30:22;;;;;;;13.75;12.45;;;;;;;20.68;100.00;100564.21;1760071;79;21061;-90
2021/07/01 00:32:50;;;;;;;15.10;12.18;;;;;;;20.64;100.00;100558.47;1755612;80;21124;-91
2021/07/01 00:35:18;;;;;;;16.82;13.35;;;;;;;20.60;100.00;100550.56;1726657;81;21110;-90
2021/07/01 00:37:45;;;;;;;15.38;12.35;;;;;;;20.57;100.00;100543.02;1744442;80;21101;-89
2021/07/01 00:40:14;;;;;;;13.43;11.78;;;;;;;20.54;100.00;100532.78;1699937;82;21114;-89
2021/07/01 00:42:42;;;;;;;16.42;11.97;;;;;;;20.52;100.00;100530.81;1722438;81;21041;-88
2021/07/01 00:45:09;;;;;;;14.35;12.03;;;;;;;20.54;100.00;100529.33;1725849;81;21021;-87
2021/07/01 00:47:37;;;;;;;25.45;12.78;;;;;;;20.55;100.00;100522.53;1700351;82;21122;-88
2021/07/01 00:50:09;;;;;;;18.30;12.98;;;;;;;20.55;100.00;100525.69;1727043;81;21010;-89
2021/07/01 00:52:37;;;;;;;17.77;11.70;;;;;;;20.55;100.00;100533.11;1746229;80;21595;-90
2021/07/01 00:55:09;;;;;;;12.88;11.75;;;;;;;20.55;100.00;100542.88;1756267;80;21509;-89
2021/07/01 00:57:39;;;;;;;13.38;11.63;;;;;;;20.55;100.00;100546.33;1753833;80;21138;-89
2021/07/01 01:02:55;;;;;;;13.80;12.40;;;;;;;20.52;100.00;100540.59;1764047;79;21548;-88
2021/07/01 01:05:24;;;;;;;13.65;12.35;;;;;;;20.49;100.00;100532.53;1760312;79;21109;-89
2021/07/01 01:07:52;;;;;;;14.28;11.90;;;;;;;20.43;100.00;100538.03;1771935;79;21145;-90
2021/07/01 01:10:19;;;;;;;15.78;12.68;;;;;;;20.40;100.00;100530.45;1795951;78;21129;-88
2021/07/01 01:12:48;;;;;;;14.05;12.53;;;;;;;20.39;100.00;100535.42;1765875;79;21069;-88
2021/07/01 01:15:16;;;;;;;13.93;12.53;;;;;;;20.39;100.00;100532.78;1750454;79;21057;-89
2021/07/01 01:17:44;;;;;;;13.93;12.47;;;;;;;20.42;100.00;100526.33;1740975;79;21532;-90
2021/07/01 01:20:13;;;;;;;15.68;12.30;;;;;;;20.43;100.00;100522.17;1766980;79;21078;-89
2021/07/01 01:22:42;;;;;;;13.40;12.10;;;;;;;20.43;100.00;100519.52;1770879;79;20955;-89
2021/07/01 01:25:10;;;;;;;15.80;12.78;;;;;;;20.41;100.00;100518.87;1751989;79;21082;-90
2021/07/01 01:27:38;;;;;;;14.73;11.85;;;;;;;20.39;100.00;100522.20;1762547;79;21227;-89
2021/07/01 01:30:07;;;;;;;14.35;12.00;;;;;;;20.38;100.00;100516.62;1762037;79;21620;-88
2021/07/01 01:32:39;;;;;;;13.60;11.93;;;;;;;20.36;100.00;100513.33;1762258;79;21085;-89
2021/07/01 01:35:08;;;;;;;15.08;11.73;;;;;;;20.35;100.00;100519.61;1746003;79;21110;-90
2021/07/01 01:37:35;;;;;;;13.93;12.63;;;;;;;20.35;100.00;100520.12;1771741;79;21348;-90
2021/07/01 01:40:03;;;;;;;13.08;11.83;;;;;;;20.35;100.00;100530.19;1751230;79;21082;-89
2021/07/01 01:42:30;;;;;;;16.60;12.07;;;;;;;20.35;100.00;100534.67;1743656;80;21056;-90
2021/07/01 01:44:57;;;;;;;15.70;12.68;;;;;;;20.32;100.00;100537.16;1768425;79;21046;-88
2021/07/01 01:47:24;;;;;;;13.50;12.25;;;;;;;20.31;100.00;100541.63;1781563;79;21418;-89
2021/07/01 01:49:52;;;;;;;14.55;12.35;;;;;;;20.28;100.00;100542.50;1748428;79;21299;-89
2021/07/01 01:52:20;;;;;;;13.88;11.90;;;;;;;20.25;100.00;100541.52;1762189;79;21588;-90
2021/07/01 01:54:48;;;;;;;14.13;12.63;;;;;;;20.21;100.00;100546.36;1753472;80;21067;-90
2021/07/01 01:57:16;;;;;;;14.28;12.80;;;;;;;20.18;100.00;100554.16;1753946;79;21042;-91
2021/07/01 01:59:48;;;;;;;16.42;11.97;;;;;;;20.16;100.00;100548.73;1737597;79;20990;-89
2021/07/01 02:02:32;;;;;;;15.30;12.68;;;;;;;20.13;100.00;100547.27;1638089;84;21872;-90
2021/07/01 02:05:17;;;;;;;16.05;12.73;;;;;;;20.13;100.00;100558.33;1693471;82;21150;-89
2021/07/01 02:07:46;;;;;;;17.32;12.45;;;;;;;20.14;100.00;100556.84;1715019;82;21019;-89
2021/07/01 02:10:22;;;;;;;13.93;11.97;;;;;;;20.17;100.00;100562.27;1691357;82;21064;-91
2021/07/01 02:12:51;;;;;;;13.38;11.93;;;;;;;20.18;100.00;100570.02;1676756;83;21529;-90
2021/07/01 02:15:22;;;;;;;15.83;13.00;;;;;;;20.21;100.00;100568.83;1692823;81;21260;-90
2021/07/01 02:17:51;;;;;;;13.15;11.95;;;;;;;20.24;100.00;100561.03;1752419;79;21046;-89
2021/07/01 02:20:22;;;;;;;14.15;12.28;;;;;;;20.28;100.00;100561.00;1737730;79;21917;-89
2021/07/01 02:22:50;;;;;;;16.37;13.58;;;;;;;20.33;100.00;100560.78;1759311;79;21000;-89
2021/07/01 02:25:18;;;;;;;14.50;13.20;;;;;;;20.39;100.00;100565.02;1762935;79;21514;-88
2021/07/01 02:27:47;;;;;;;15.32;13.48;;;;;;;20.44;100.00;100564.80;1710216;81;21916;-90
2021/07/01 02:30:17;;;;;;;13.80;12.55;;;;;;;20.48;100.00;100570.03;1712770;80;21082;-91
2021/07/01 02:32:46;;;;;;;14.87;13.35;;;;;;;20.52;100.00;100571.00;1714389;81;20966;-92
2021/07/01 02:35:14;;;;;;;18.60;12.88;;;;;;;20.53;100.00;100561.56;1687810;81;21455;-92
2021/07/01 02:37:59;;;;;;;15.80;13.30;;;;;;;20.56;100.00;100560.36;1710733;81;21137;-89
2021/07/01 02:40:29;;;;;;;15.72;14.03;;;;;;;20.59;100.00;100562.66;1709807;81;22393;-88
2021/07/01 02:43:02;;;;;;;14.95;13.55;;;;;;;20.60;100.00;100565.63;1707779;81;21149;-89
2021/07/01 02:45:29;;;;;;;15.50;13.80;;;;;;;20.63;100.00;100577.17;1711071;81;21204;-90
2021/07/01 02:47:57;;;;;;;15.72;14.40;;;;;;;20.63;100.00;100575.85;1707883;81;21178;-89
2021/07/01 02:50:26;;;;;;;16.10;14.28;;;;;;;20.63;100.00;100566.59;1710865;81;21334;-88
2021/07/01 02:52:53;;;;;;;15.75;14.18;;;;;;;20.65;100.00;100569.37;1708332;81;21173;-90
2021/07/01 02:55:20;;;;;;;15.53;13.95;;;;;;;20.68;100.00;100560.73;1713219;81;21117;-89
2021/07/01 02:57:48;;;;;;;15.88;14.35;;;;;;;20.72;100.00;100559.37;1749160;79;21082;-91
2021/07/01 03:00:16;;;;;;;16.23;14.53;;;;;;;20.78;100.00;100556.85;1748374;79;21553;-90
2021/07/01 03:02:48;;;;;;;16.80;15.08;;;;;;;20.84;100.00;100561.88;1771431;79;21182;-89
2021/07/01 03:05:17;;;;;;;15.65;14.00;;;;;;;20.89;100.00;100559.52;1752652;79;21900;-88
2021/07/01 03:07:44;;;;;;;15.50;14.05;;;;;;;20.97;100.00;100573.14;1712253;82;21047;-90
2021/07/01 03:10:12;;;;;;;15.58;13.48;;;;;;;21.06;100.00;100565.93;1707314;80;21188;-90
2021/07/01 03:12:57;;;;;;;15.28;13.72;;;;;;;21.14;100.00;100567.63;1696556;82;21470;-88
2021/07/01 03:15:25;;;;;;;14.80;13.45;;;;;;;21.23;100.00;100570.49;1697862;81;21022;-89
2021/07/01 03:17:52;;;;;;;16.45;14.15;;;;;;;21.27;100.00;100572.58;1711426;80;21094;-89
2021/07/01 03:20:21;;;;;;;17.62;13.83;;;;;;;21.35;100.00;100570.30;1697458;81;21029;-89
2021/07/01 03:23:07;;;;;;;16.90;15.08;;;;;;;21.41;100.00;100566.92;1683141;82;21619;-88
2021/07/01 03:25:34;;;;;;;16.70;14.98;;;;;;;21.50;100.00;100576.89;1720722;80;21047;-91
2021/07/01 03:28:01;;;;;;;16.90;15.28;;;;;;;21.54;100.00;100579.48;1704678;82;20967;-91
2021/07/01 03:30:28;;;;;;;17.27;14.85;;;;;;;21.58;100.00;100579.96;1719918;81;21087;-88
2021/07/01 03:32:56;;;;;;;17.12;15.25;;;;;;;21.60;100.00;100573.95;1762089;78;21060;-88
2021/07/01 03:35:23;;;;;;;18.37;14.70;;;;;;;21.67;100.00;100581.97;1766506;79;21517;-90
2021/07/01 03:38:09;;;;;;;17.27;15.50;;;;;;;21.71;100.00;100585.38;1739269;80;21133;-90
2021/07/01 03:40:38;;;;;;;17.95;16.07;;;;;;;21.79;100.00;100591.06;1676016;81;21515;-88
2021/07/01 03:43:05;;;;;;;18.15;15.13;;;;;;;21.83;100.00;100596.28;1735838;80;21512;-90
2021/07/01 03:45:34;;;;;;;19.00;14.70;;;;;;;21.88;100.00;100591.74;1702395;81;21128;-90
2021/07/01 03:48:01;;;;;;;21.20;15.53;;;;;;;21.97;100.00;100581.81;1691921;81;21603;-90
2021/07/01 03:50:29;;;;;;;16.55;14.85;;;;;;;22.03;100.00;100580.55;1682316;82;21053;-89
2021/07/01 03:53:04;;;;;;;16.95;14.40;;;;;;;22.13;100.00;100576.75;1684110;82;21593;-91
2021/07/01 03:55:31;;;;;;;20.20;14.73;;;;;;;22.22;100.00;100578.25;1735793;78;21075;-88
2021/07/01 03:57:59;;;;;;;17.20;13.90;;;;;;;22.34;100.00;100584.64;1751430;79;21132;-89
2021/07/01 04:00:27;;;;;;;15.55;13.80;;;;;;;22.45;100.00;100583.31;1748554;79;21133;-89
2021/07/01 04:02:56;;;;;;;16.93;14.18;;;;;;;22.55;100.00;100585.63;1759728;79;21096;-91
2021/07/01 04:05:27;;;;;;;18.30;14.53;;;;;;;22.68;100.00;100592.33;1763156;79;21117;-90
2021/07/01 04:10:38;;;;;;;18.23;12.80;;;;;;;22.94;100.00;100586.01;1835010;75;22663;-89
2021/07/01 04:13:07;;;;;;;16.60;13.08;;;;;;;22.96;100.00;100595.41;1801180;78;21007;-91
2021/07/01 04:15:37;;;;;;;15.18;13.35;;;;;;;22.97;100.00;100602.36;1762389;78;21127;-89
2021/07/01 04:18:23;;;;;;;14.30;12.75;;;;;;;22.99;100.00;100597.68;1778691;78;20956;-90
2021/07/01 04:21:10;;;;;;;15.80;13.40;;;;;;;23.05;100.00;100605.86;1779626;79;21096;-92
2021/07/01 04:23:57;;;;;;;18.92;12.65;;;;;;;23.09;100.00;100608.45;1774973;79;21049;-91
2021/07/01 04:26:41;;;;;;;14.05;12.50;;;;;;;23.14;100.00;100601.53;1782143;78;21028;-90
2021/07/01 04:29:10;;;;;;;14.10;12.78;;;;;;;23.22;100.00;100592.58;1780609;79;21311;-90
2021/07/01 04:31:37;;;;;;;16.17;12.63;;;;;;;23.29;100.00;100594.73;1780952;78;21478;-90
2021/07/01 04:34:06;;;;;;;14.65;13.08;;;;;;;23.34;100.00;100595.99;1780855;78;20936;-92
2021/07/01 04:36:34;;;;;;;16.07;12.75;;;;;;;23.36;100.00;100597.42;1780678;78;21523;-88
2021/07/01 04:39:06;;;;;;;15.18;13.58;;;;;;;23.41;100.00;100604.80;1822411;77;21020;-90
2021/07/01 04:41:35;;;;;;;13.90;12.50;;;;;;;23.49;100.00;100604.61;1764862;77;21072;-89
2021/07/01 04:44:02;;;;;;;14.13;12.45;;;;;;;23.54;100.00;100600.83;1784399;78;21092;-91
2021/07/01 04:46:29;;;;;;;14.87;13.32;;;;;;;23.57;100.00;100596.94;1792938;78;21096;-93
2021/07/01 04:48:57;;;;;;;14.87;12.78;;;;;;;23.61;100.00;100600.84;1793304;77;21491;-89
2021/07/01 04:51:24;;;;;;;14.00;12.65;;;;;;;23.65;100.00;100604.72;1793216;78;21036;-92
2021/07/01 04:54:10;;;;;;;24.00;12.95;;;;;;;23.65;100.00;100602.06;1791018;78;21767;-90
2021/07/01 04:56:45;;;;;;;14.85;13.38;;;;;;;23.69;100.00;100603.31;1762899;77;21122;-91
2021/07/01 04:59:20;;;;;;;16.07;13.98;;;;;;;23.71;100.00;100603.94;1791410;77;21100;-88
2021/07/01 05:01:59;;;;;;;15.20;13.75;;;;;;;23.73;100.00;100607.19;1795893;78;21102;-92
2021/07/01 05:04:34;;;;;;;16.15;14.35;;;;;;;23.79;100.00;100599.75;1777044;77;21404;-89
2021/07/01 05:07:01;;;;;;;16.15;13.25;;;;;;;23.86;100.00;100597.61;1793268;77;21077;-91
2021/07/01 05:09:28;;;;;;;15.35;13.62;;;;;;;23.88;100.00;100601.69;1793332;77;21064;-91
2021/07/01 05:12:02;;;;;;;17.50;13.80;;;;;;;23.96;100.00;100591.91;1819149;77;21044;-91
2021/07/01 05:14:30;;;;;;;;;;;;;;;24.02;100.00;100587.92;1791509;77;21071;-93
2021/07/01 05:16:58;;;;;;;15.80;14.20;;;;;;;24.08;100.00;100580.45;1783373;78;20181;-90
2021/07/01 05:19:27;;;;;;;16.32;14.03;;;;;;;24.13;100.00;100581.66;1792258;77;21119;-89
2021/07/01 05:21:59;;;;;;;17.80;14.15;;;;;;;24.16;100.00;100583.91;1746511;79;21057;-90
2021/07/01 05:24:49;;;;;;;15.35;13.48;;;;;;;24.21;100.00;100578.78;1789156;78;21048;-91
2021/07/01 05:27:37;;;;;;;15.28;13.50;;;;;;;24.29;100.00;100577.77;1767011;79;21122;-89
2021/07/01 05:30:23;;;;;;;19.12;14.10;;;;;;;24.33;100.00;100574.98;1765075;78;21060;-89
2021/07/01 05:33:09;;;;;;;18.12;14.43;;;;;;;24.38;100.00;100566.69;1764432;80;21849;-90
2021/07/01 05:35:38;;;;;;;18.70;13.88;;;;;;;24.41;100.00;100561.45;1763991;78;21047;-91
2021/07/01 05:38:05;;;;;;;18.25;14.28;;;;;;;24.44;100.00;100561.05;1766645;80;21522;-92
2021/07/01 05:40:32;;;;;;;16.62;14.40;;;;;;;24.46;100.00;100551.02;1766384;80;21053;-92
2021/07/01 05:43:02;;;;;;;20.45;14.10;;;;;;;24.49;100.00;100549.78;1761684;80;21689;-93
2021/07/01 05:45:29;;;;;;;16.95;13.32;;;;;;;24.52;100.00;100540.86;1784366;78;21777;-92
2021/07/01 05:47:56;;;;;;;14.70;13.20;;;;;;;24.55;100.00;100544.45;1792191;78;21045;-91
2021/07/01 05:50:24;;;;;;;15.03;13.10;;;;;;;24.57;100.00;100542.37;1791677;78;21045;-92
2021/07/01 05:52:58;;;;;;;21.42;14.18;;;;;;;24.60;100.00;100545.64;1786756;78;21564;-93
2021/07/01 05:55:22;;;;;;;17.32;14.28;;;;;;;24.61;100.00;100549.42;1822721;77;20998;-91
2021/07/01 05:57:49;;;;;;;17.82;14.68;;;;;;;24.65;100.00;100543.16;1789365;78;21083;-89
2021/07/01 06:00:18;;;;;;;20.00;15.55;;;;;;;24.72;100.00;100548.80;1789401;78;20927;-95
2021/07/01 06:02:52;;;;;;;19.07;16.15;;;;;;;24.81;100.00;100542.72;1795626;78;20997;-91
2021/07/01 06:05:19;;;;;;;21.65;17.50;;;;;;;24.90;100.00;100539.31;1795383;78;21053;-91
2021/07/01 06:08:08;;;;;;;18.80;16.80;;;;;;;25.00;100.00;100538.84;1795578;78;20998;-93
2021/07/01 06:10:39;;;;;;;22.93;15.68;;;;;;;25.07;100.00;100541.48;1776584;78;21745;-91
2021/07/01 06:13:08;;;;;;;38.67;16.27;;;;;;;25.15;100.00;100536.71;1797720;79;21116;-91
2021/07/01 06:15:36;;;;;;;18.32;16.45;;;;;;;25.23;100.00;100534.32;1792842;78;21562;-92
2021/07/01 06:18:04;;;;;;;16.02;14.35;;;;;;;25.29;100.00;100533.95;1771991;79;21013;-93
2021/07/01 06:20:33;;;;;;;17.02;14.07;;;;;;;25.32;100.00;100527.67;1771619;79;21008;-91
2021/07/01 06:23:00;;;;;;;16.40;14.75;;;;;;;25.37;100.00;100521.70;1771684;79;21779;-92
2021/07/01 06:25:27;;;;;;;18.00;14.30;;;;;;;25.43;100.00;100526.22;1797010;79;21136;-89
2021/07/01 06:27:55;;;;;;;15.00;13.25;;;;;;;25.48;100.00;100526.88;1769753;79;21028;-90
2021/07/01 06:30:24;;;;;;;14.10;12.60;;;;;;;25.52;100.00;100524.09;1769913;79;21478;-92
2021/07/01 06:32:56;;;;;;;14.50;11.05;;;;;;;25.59;100.00;100528.05;1792139;77;20968;-90
2021/07/01 06:35:26;;;;;;;12.85;11.53;;;;;;;25.67;100.00;100529.92;1770715;78;21800;-94
2021/07/01 06:37:59;;;;;;;18.07;11.57;;;;;;;25.75;100.00;100528.01;1753882;79;21079;-92
2021/07/01 06:40:47;;;;;;;14.53;10.60;;;;;;;25.83;100.00;100535.73;1740913;79;21067;-90
2021/07/01 06:43:35;;;;;;;12.07;10.80;;;;;;;25.90;100.00;100535.16;1739609;81;21843;-92
2021/07/01 06:46:31;;;;;;;12.58;10.35;;;;;;;26.01;100.00;100537.61;1747899;78;21047;-93
2021/07/01 06:49:11;;;;;;;12.33;10.58;;;;;;;26.10;100.00;100537.66;1723241;78;20998;-89
2021/07/01 06:52:01;;;;;;;12.15;10.95;;;;;;;26.16;100.00;100528.50;1757168;79;21566;-89
2021/07/01 06:54:47;;;;;;;12.85;11.60;;;;;;;26.16;100.00;100523.16;1813089;77;21085;-92
2021/07/01 06:57:17;;;;;;;11.88;10.48;;;;;;;26.26;100.00;100514.94;1780032;78;21479;-92
2021/07/01 07:03:17;;;;;;;;;;;;;;;;;;;;;
2021/07/01 07:05:39;;;;;;;11.68;10.55;;;;;;;26.49;100.00;100512.61;1742485;78;21116;-90
2021/07/01 07:08:13;;;;;;;12.30;11.18;;;;;;;26.59;100.00;100519.58;1741173;80;21118;-89
2021/07/01 07:10:42;;;;;;;12.53;11.30;;;;;;;26.70;100.00;100523.34;1799232;77;21028;-90
2021/07/01 07:13:10;;;;;;;14.10;11.03;;;;;;;26.80;100.00;100523.66;1792893;78;21039;-89
2021/07/01 07:15:38;;;;;;;14.15;11.05;;;;;;;26.89;100.00;100523.64;1765177;80;21115;-89
2021/07/01 07:18:23;;;;;;;12.53;11.30;;;;;;;26.97;100.00;100530.51;1811397;77;21047;-88
2021/07/01 07:20:58;;;;;;;12.30;11.10;;;;;;;27.04;100.00;100523.22;1734379;81;21123;-94
2021/07/01 07:23:34;;;;;;;12.23;11.00;;;;;;;27.10;100.00;100530.05;1762614;79;21708;-90
2021/07/01 07:26:17;;;;;;;13.03;11.63;;;;;;;27.11;100.00;100528.47;1800731;77;21024;-92
2021/07/01 07:28:51;;;;;;;12.75;11.38;;;;;;;27.14;100.00;100526.69;1763677;77;21164;-93
2021/07/01 07:31:24;;;;;;;13.30;11.80;;;;;;;27.17;100.00;100526.75;1811889;77;20969;-90
2021/07/01 07:34:01;;;;;;;14.10;12.45;;;;;;;27.20;100.00;100525.77;1765932;79;21126;-91
2021/07/01 07:36:28;;;;;;;15.72;11.97;;;;;;;27.31;100.00;100528.71;1800701;77;21739;-92
2021/07/01 07:38:58;;;;;;;12.15;11.05;;;;;;;27.42;100.00;100525.77;1765246;78;21532;-92
2021/07/01 07:41:25;;;;;;;12.78;11.35;;;;;;;27.51;100.00;100517.73;1747156;79;21445;-92
2021/07/01 07:43:54;;;;;;;15.53;11.60;;;;;;;27.61;100.00;100519.30;1758077;78;21012;-89
2021/07/01 07:46:28;;;;;;;13.70;12.20;;;;;;;27.68;100.00;100520.00;1758345;80;21111;-94
2021/07/01 07:49:01;;;;;;;13.83;12.55;;;;;;;27.70;100.00;100521.92;1769100;77;22034;-93
2021/07/01 07:51:32;;;;;;;13.88;12.45;;;;;;;27.80;100.00;100522.67;1828454;77;20998;-90
2021/07/01 07:54:01;;;;;;;13.18;11.48;;;;;;;27.95;100.00;100523.55;1823984;77;21458;-91
2021/07/01 07:56:37;;;;;;;16.75;12.85;;;;;;;28.04;100.00;100532.06;1824453;77;21033;-93
2021/07/01 07:59:07;;;;;;;15.15;12.35;;;;;;;28.13;100.00;100536.55;1753254;80;21026;-92
2021/07/01 08:01:38;;;;;;;14.23;12.80;;;;;;;28.23;100.00;100532.77;1754864;80;21540;-92
2021/07/01 08:04:08;;;;;;;15.68;14.15;;;;;;;28.31;100.00;100536.42;1739168;80;21007;-91
2021/07/01 08:06:35;;;;;;;15.40;13.28;;;;;;;28.34;100.00;100539.14;1755300;80;21110;-92
2021/07/01 08:09:05;;;;;;;16.95;13.93;;;;;;;28.42;100.00;100540.62;1755781;80;21219;-92
2021/07/01 08:11:35;;;;;;;19.40;13.75;;;;;;;28.53;100.00;100534.44;1763301;78;21531;-92
2021/07/01 08:14:04;;;;;;;13.25;12.07;;;;;;;28.67;100.00;100532.30;1789853;78;21068;-91
2021/07/01 08:16:31;;;;;;;14.78;13.48;;;;;;;28.78;100.00;100536.82;1789716;78;20953;-91
2021/07/01 08:19:00;;;;;;;16.62;14.65;;;;;;;28.83;100.00;100528.06;1755523;80;21148;-91
2021/07/01 08:21:28;;;;;;;16.37;14.68;;;;;;;28.83;100.00;100525.39;1752706;80;20975;-92
2021/07/01 08:24:01;;;;;;;18.62;15.45;;;;;;;28.74;100.00;100527.65;1792394;79;21091;-92
2021/07/01 08:26:28;;;;;;;17.77;16.00;;;;;;;28.72;100.00;100528.95;1788186;78;21107;-92
2021/07/01 08:28:55;;;;;;;18.42;15.95;;;;;;;28.71;100.00;100520.62;1734171;80;21609;-90
2021/07/01 08:31:23;;;;;;;20.97;16.45;;;;;;;28.61;100.00;100522.02;1795356;78;21491;-92
2021/07/01 08:33:51;;;;;;;18.02;15.08;;;;;;;28.51;100.00;100517.78;1795332;78;20985;-92
2021/07/01 08:36:23;;;;;;;17.73;15.83;;;;;;;28.40;100.00;100516.77;1795337;78;20988;-91
2021/07/01 08:38:55;;;;;;;16.93;15.00;;;;;;;28.28;100.00;100516.00;1821307;77;21052;-93
2021/07/01 08:41:27;;;;;;;16.90;14.47;;;;;;;28.25;100.00;100519.94;1818758;77;21060;-92
2021/07/01 08:44:02;;;;;;;17.23;15.50;;;;;;;28.29;100.00;100517.09;1770238;78;21347;-91
2021/07/01 08:46:55;;;;;;;16.15;14.65;;;;;;;28.33;100.00;100512.08;1763554;80;21044;-92
2021/07/01 08:49:55;;;;;;;17.05;15.30;;;;;;;28.36;100.00;100507.59;1731305;81;21159;-91
2021/07/01 08:52:26;;;;;;;17.37;15.58;;;;;;;28.43;100.00;100508.28;1731866;81;21010;-91
2021/07/01 08:55:06;;;;;;;18.12;15.95;;;;;;;28.62;100.00;100499.54;1806972;79;20981;-90
2021/07/01 08:57:36;;;;;;;21.67;17.50;;;;;;;28.86;100.00;100506.17;1807954;78;21138;-92
2021/07/01 09:00:13;;;;;;;21.48;19.48;;;;;;;29.05;100.00;100498.73;1779708;78;21094;-92
2021/07/01 09:02:46;;;;;;;21.90;18.77;;;;;;;29.19;100.00;100500.58;1781849;78;21052;-91
2021/07/01 09:05:17;;;;;;;19.57;17.73;;;;;;;29.36;100.00;100496.58;1775464;78;20975;-91
2021/07/01 09:07:52;;;;;;;21.27;17.10;;;;;;;29.50;100.00;100505.63;1779466;79;21034;-92
2021/07/01 09:10:25;;;;;;;18.48;16.10;;;;;;;29.63;100.00;100493.75;1799776;78;21005;-90
2021/07/01 09:13:08;;;;;;;18.30;16.37;;;;;;;29.78;100.00;100493.97;1796140;77;21076;-91
2021/07/01 09:15:31;;;;;;;18.82;16.48;;;;;;;29.90;100.00;100498.72;1786755;78;21594;-94
2021/07/01 09:18:02;;;;;;;17.82;16.02;;;;;;;29.92;100.00;100501.72;1803251;77;21005;-94
2021/07/01 09:20:40;;;;;;;19.37;16.45;;;;;;;29.79;100.00;100501.52;1771715;77;21058;-91
2021/07/01 09:23:09;;;;;;;20.50;16.82;;;;;;;29.64;100.00;100503.43;1820226;77;21061;-90
2021/07/01 09:25:41;;;;;;;18.67;16.67;;;;;;;29.49;100.00;100503.48;1773142;79;28278;-92
2021/07/01 09:28:13;;;;;;;26.40;17.65;;;;;;;29.41;100.00;100504.70;1778665;78;21413;-92
2021/07/01 09:30:37;;;;;;;23.62;18.10;;;;;;;29.48;100.00;100509.11;1815504;78;20986;-92
2021/07/01 09:33:08;;;;;;;20.43;18.25;;;;;;;29.59;100.00;100504.16;1815089;77;20994;-90
2021/07/01 09:35:37;;;;;;;20.35;18.25;;;;;;;29.71;100.00;100504.06;1809022;77;21162;-90
2021/07/01 09:38:10;;;;;;;30.05;19.20;;;;;;;29.75;100.00;100501.19;1798353;78;21045;-91
2021/07/01 09:40:40;;;;;;;20.92;18.65;;;;;;;29.74;100.00;100500.36;1792062;78;21084;-91
2021/07/01 09:43:08;;;;;;;24.32;18.77;;;;;;;29.75;100.00;100498.52;1792834;77;21017;-91
2021/07/01 09:45:37;;;;;;;22.95;19.02;;;;;;;29.75;100.00;100502.53;1804463;78;22250;-92
2021/07/01 09:48:13;;;;;;;21.68;19.48;;;;;;;29.69;100.00;100507.52;1761151;80;21513;-91
2021/07/01 09:50:46;;;;;;;22.10;19.10;;;;;;;29.67;100.00;100506.97;1801299;77;21649;-92
2021/07/01 09:53:29;;;;;;;18.35;16.52;;;;;;;29.66;100.00;100500.78;1765533;79;21065;-91
2021/07/01 09:56:06;;;;;;;;;;;;;;;;;;;;;
2021/07/01 09:58:29;;;;;;;19.35;17.27;;;;;;;29.88;100.00;100494.13;1787021;78;21121;-91
2021/07/01 10:00:58;;;;;;;21.95;18.87;;;;;;;29.92;100.00;100500.38;1816625;78;21290;-89
2021/07/01 10:03:30;;;;;;;23.47;19.75;;;;;;;29.94;100.00;100504.95;1788029;78;20985;-92
2021/07/01 10:06:02;;;;;;;22.05;19.27;;;;;;;29.95;100.00;100497.18;1767307;77;21028;-91
2021/07/01 10:08:39;;;;;;;21.05;18.25;;;;;;;29.97;100.00;100490.50;1764951;78;21067;-92
2021/07/01 10:11:09;;;;;;;33.95;30.32;;;;;;;29.98;100.00;100486.77;1777026;78;21068;-91
2021/07/01 10:13:38;;;;;;;38.23;32.65;;;;;;;29.95;100.00;100483.77;1725021;81;21147;-89
2021/07/01 10:16:06;;;;;;;23.35;18.75;;;;;;;29.87;100.00;100490.36;1762654;80;21011;-90
2021/07/01 10:18:45;;;;;;;20.50;17.73;;;;;;;29.76;100.00;100492.09;1762894;78;21024;-92
2021/07/01 10:21:16;;;;;;;20.50;15.03;;;;;;;29.68;100.00;100488.48;1762299;78;21083;-93
2021/07/01 10:23:51;;;;;;;23.07;15.70;;;;;;;29.58;100.00;100489.13;1775860;77;21036;-93
2021/07/01 10:26:20;;;;;;;23.30;14.55;;;;;;;29.52;100.00;100495.48;1760901;78;21017;-94
2021/07/01 10:29:02;;;;;;;15.70;14.20;;;;;;;29.46;100.00;100490.55;1759168;78;21090;-91
2021/07/01 10:31:55;;;;;;;17.07;14.10;;;;;;;29.42;100.00;100496.14;1786672;77;21025;-93
2021/07/01 10:34:24;;;;;;;16.87;13.30;;;;;;;29.38;100.00;100493.13;1774845;79;21103;-88
2021/07/01 10:37:25;;;;;;;;;;;;;;;29.33;100.00;100494.91;1828550;77;21467;-92
2021/07/01 10:39:50;;;;;;;18.80;13.85;;;;;;;29.30;100.00;100490.00;1768896;80;21028;-94
2021/07/01 10:42:21;;;;;;;19.17;14.00;;;;;;;29.32;100.00;100487.92;1763994;78;21467;-91
2021/07/01 10:44:48;;;;;;;15.28;12.78;;;;;;;29.40;100.00;100486.17;1785027;78;21404;-93
2021/07/01 10:47:31;;;;;;;16.90;12.70;;;;;;;29.47;100.00;100487.36;1733281;81;21021;-93
2021/07/01 10:50:00;;;;;;;15.70;11.88;;;;;;;29.50;100.00;100487.69;1729592;81;21025;-92
2021/07/01 10:52:44;;;;;;;21.55;12.23;;;;;;;29.64;100.00;100481.97;1732224;81;22118;-93
2021/07/01 10:55:23;;;;;;;;;;;;;;;;;;;;;
2021/07/01 10:57:56;;;;;;;22.60;12.80;;;;;;;30.10;100.00;100481.28;1732759;81;21488;-95
2021/07/01 11:00:46;;;;;;;15.03;13.25;;;;;;;30.29;100.00;100471.58;1724525;82;21128;-94
2021/07/01 11:03:28;;;;;;;15.03;11.80;;;;;;;30.41;100.00;100462.84;1732004;80;21571;-90
2021/07/01 11:05:59;;;;;;;12.95;11.53;;;;;;;30.51;100.00;100456.27;1763379;78;26773;-92
2021/07/01 11:08:35;;;;;;;12.43;10.13;;;;;;;30.61;100.00;100454.76;1751797;78;21570;-90
2021/07/01 11:11:20;;;;;;;12.68;11.10;;;;;;;30.76;100.00;100444.70;1797842;77;21150;-93
2021/07/01 11:14:22;;;;;;;;;;;;;;;;;;;;;
2021/07/01 11:16:47;;;;;;;12.82;10.30;;;;;;;31.03;100.00;100439.29;1787987;79;20936;-92
2021/07/01 11:19:26;;;;;;;13.48;9.98;;;;;;;31.15;100.00;100435.11;1823241;77;21671;-94
2021/07/01 11:21:54;;;;;;;17.62;10.08;;;;;;;31.13;94.10;100433.20;1806302;77;20989;-89
2021/07/01 11:24:26;;;;;;;13.15;9.75;;;;;;;31.05;95.56;100435.78;1791283;78;21092;-90
2021/07/01 11:26:56;;;;;;;15.48;11.35;;;;;;;30.93;84.14;100424.41;1797359;78;21507;-95
2021/07/01 11:29:45;;;;;;;17.77;11.95;;;;;;;30.71;93.79;100417.25;1781328;78;21028;-90
2021/07/01 11:32:25;;;;;;;16.02;11.30;;;;;;;30.53;94.55;100418.41;1748336;80;21678;-93
2021/07/01 11:34:55;;;;;;;18.98;10.05;;;;;;;30.47;99.74;100409.99;1772964;78;20930;-92
2021/07/01 11:37:39;;;;;;;11.00;9.75;;;;;;;30.58;100.00;100409.59;1805145;78;21029;-93